Green River, WY

2:36 AM MDT on April 18, 2015 (GMT -0600)
WYDOT | | Change Station
CLOSE
Current Station
Personal Weather Station
Location: Green River, WY
Elevation: 6315 ft
Nearby Weather Stations

Elev 6315 ft 41.53 °N, 109.46 °W | Updated 24 minutes ago

Mostly Cloudy
Mostly Cloudy
38 °F
Feels Like 34 °F
N
5
Wind Variable Wind from West
Gusts 10.0 mph

Today
High -- | Low -- °F
--% Chance of Precip.
Yesterday
High -- | Low -- °F
Precip. -- in
6:33 AM 8:01 PM
Waning Crescent, 0% visible
Pressure 30.07 in
Visibility 10.0 miles
Clouds Scattered Clouds 1000 ft
Overcast 1500 ft
Windchill 34 °F
Dew Point 36 °F
Humidity 92%
Rainfall in
Snow Depth Not available.
UV 0 out of 12
Pollen 9.00 out of 12
Air Quality Not available.
Flu Activity Local Activity
METAR KRKS 180754Z AUTO VRB03KT 10SM SCT010 OVC015 02/01 A3008 RMK AO2 SLP182 T00220011

More Conditions Fewer Conditions

Pressure 30.07 in
Visibility 10.0 miles
Clouds Scattered Clouds 1000 ft
Overcast 1500 ft
Windchill 34 °F
Dew Point 36 °F
Humidity 92%
Rainfall in
Snow Depth Not available.
UV 0 out of 12
Pollen 9.00 out of 12
Air Quality Not available.
Flu Activity Local Activity
METAR KRKS 180754Z AUTO VRB03KT 10SM SCT010 OVC015 02/01 A3008 RMK AO2 SLP182 T00220011

More Conditions Fewer Conditions

10-Day Weather Forecast

Almanac

Astronomy

Apr. 18, 2015 Rise Set
Actual Time
Civil Twilight
Nautical Twilight
Astronomical Twilight
Moon
Length of Visible Light
Length of Day
Tomorrow will be .
, % of the Moon is Illuminated

Today's Extremes

State Highs State Lows

Community

WunderPhotos

Upload Photos

1,814,345 photos uploaded!

WunderBlogs® & News

Nearby

Air Quality

  Air Quality AQ Index Pollutant
Not available.

Snow Depth

Station Depth Elevation

Earthquake Activity

City Distance Mag. Time & Date
Minimum magnitude displayed is 2.5.

Coastal Water Temperatures

Place Temperature

Stations

Nearby Weather Stations

Station Location Temp. Windchill Dew Point Humidity Wind Precip. Elev Updated Type